Clearwater, FL (33761)

12:22 AM EST on December 28, 2014 (GMT -0500)
APRSWXNET Clearwater FL US | Change Station
CLOSE
Current Station
Personal Weather Station
Location: Clearwater, FL
Elevation: 109 ft
Nearby Weather Stations

Elev 109 ft 28.03 °N, 82.72 °W | Updated 34 minutes ago

Overcast
Overcast
67.0 °F
Feels Like 67.0 °F
N
0.0
Wind Variable Wind from NW

Today
High -- | Low -- °F
--% Chance of Precip.
Yesterday
High -- | Low -- °F
Precip. -- in
7:21 AM 5:43 PM
Waxing Crescent, 44% visible
Pressure 30.18 in
Visibility 10.0 miles
Clouds Scattered Clouds 3300 ft
Overcast 5000 ft
Dew Point 65.0 °F
Humidity 94%
Rainfall -999.00 in
Snow Depth Not available.
UV 0 out of 12
Pollen 6.20 out of 12
Air Quality Not available.
Flu Activity Not available.
METAR KPIE 280453Z 35006KT 10SM SCT033 OVC050 21/19 A3018 RMK AO2 SLP220 T02060189 402670178

More Conditions Fewer Conditions

Pressure 30.18 in
Visibility 10.0 miles
Clouds Scattered Clouds 3300 ft
Overcast 5000 ft
Dew Point 65.0 °F
Humidity 94%
Rainfall -999.00 in
Snow Depth Not available.
UV 0 out of 12
Pollen 6.20 out of 12
Air Quality Not available.
Flu Activity Not available.
METAR KPIE 280453Z 35006KT 10SM SCT033 OVC050 21/19 A3018 RMK AO2 SLP220 T02060189 402670178

More Conditions Fewer Conditions

10-Day Weather Forecast

Almanac

Astronomy

Dec. 28, 2014 Rise Set
Actual Time
Civil Twilight
Nautical Twilight
Astronomical Twilight
Moon
Length of Visible Light
Length of Day
Tomorrow will be .
, % of the Moon is Illuminated

Today's Extremes

State Highs State Lows

Community

WunderPhotos

Upload Photos

1,781,205 photos uploaded!

WunderBlogs® & News

Nearby

Air Quality

  Air Quality AQ Index Pollutant
Not available.

Snow Depth

Station Depth Elevation

Earthquake Activity

City Distance Mag. Time & Date
Minimum magnitude displayed is 2.5.

Coastal Water Temperatures

Place Temperature

Nearby Weather Stations